Time;durP1;ratioP1;P1;durP2;ratioP2;P2;SDS_P1;SDS_P2;PMS_P1;PMS_P2;Temp;Humidity;BMP_temperature;BMP_pressure;BME280_temperature;BME280_humidity;BME280_pressure;Samples;Min_cycle;Max_cycle;Signal;HPM_P1;HPM_P2
2022/07/26 00:01:25;;;;;;;;;;;18.70;99.90;;;;;;4932112;29;19930;-77
2022/07/26 00:03:51;;;;;;;;;;;18.70;99.90;;;;;;4920758;29;19993;-77
2022/07/26 00:06:17;;;;;;;;;;;18.70;99.90;;;;;;4939896;29;19930;-77
2022/07/26 00:08:43;;;;;;;;;;;18.70;99.90;;;;;;4930231;29;19926;-77
2022/07/26 00:11:09;;;;;;;;;;;18.70;99.90;;;;;;4919072;28;19926;-78
2022/07/26 00:13:35;;;;;;;;;;;18.70;99.90;;;;;;4918422;28;19930;-77
2022/07/26 00:16:02;;;;;;;;;;;18.70;99.90;;;;;;4910919;28;19927;-77
2022/07/26 00:18:30;;;;;;;;;;;18.70;99.90;;;;;;4931668;29;19930;-77
2022/07/26 00:20:55;;;;;;;;;;;18.70;99.90;;;;;;4926918;29;19969;-76
2022/07/26 00:23:21;;;;;;;;;;;18.70;99.90;;;;;;4941055;28;19965;-77
2022/07/26 00:25:47;;;;;;;;;;;18.70;99.90;;;;;;4907521;29;19996;-77
2022/07/26 00:28:13;;;;;;;;;;;18.70;99.90;;;;;;4939303;28;19926;-77
2022/07/26 00:30:39;;;;;;;;;;;18.80;99.90;;;;;;4932033;29;20404;-76
2022/07/26 00:33:05;;;;;;;;;;;18.80;99.90;;;;;;4912132;28;19949;-77
2022/07/26 00:35:31;;;;;;;;;;;18.80;99.90;;;;;;4932457;29;19927;-77
2022/07/26 00:37:58;;;;;;;;;;;18.70;99.90;;;;;;4914062;29;19926;-78
2022/07/26 00:40:23;;;;;;;;;;;18.70;99.90;;;;;;4921448;28;19969;-78
2022/07/26 00:42:52;;;;;;;;;;;18.70;99.90;;;;;;4950317;28;20485;-78
2022/07/26 00:45:18;;;;;;;;;;;18.70;99.90;;;;;;4910174;29;19933;-78
2022/07/26 00:47:44;;;;;;;;;;;18.70;99.90;;;;;;4926233;29;19938;-78
2022/07/26 00:50:11;;;;;;;;;;;18.60;99.90;;;;;;4941371;28;19929;-78
2022/07/26 00:52:37;;;;;;;;;;;18.60;99.90;;;;;;4951265;28;20064;-78
2022/07/26 00:55:07;;;;;;;;;;;18.60;99.90;;;;;;4934854;28;20017;-78
2022/07/26 00:57:34;;;;;;;;;;;18.50;99.90;;;;;;4934775;28;19926;-78
2022/07/26 01:00:02;;;;;;;;;;;18.60;99.90;;;;;;4933808;28;19930;-77
2022/07/26 01:02:28;;;;;;;;;;;18.50;99.90;;;;;;4945072;28;19973;-78
2022/07/26 01:04:54;;;;;;;;;;;18.60;99.90;;;;;;4958869;28;20371;-79
2022/07/26 01:07:21;;;;;;;;;;;18.50;99.90;;;;;;4970948;28;20304;-77
2022/07/26 01:09:47;;;;;;;;;;;18.50;99.90;;;;;;4950885;28;20424;-77
2022/07/26 01:12:13;;;;;;;;;;;18.50;99.90;;;;;;4935461;28;19934;-77
2022/07/26 01:14:42;;;;;;;;;;;18.40;99.90;;;;;;4930104;28;19976;-77
2022/07/26 01:17:07;;;;;;;;;;;18.50;99.90;;;;;;4947232;28;20332;-77
2022/07/26 01:19:33;;;;;;;;;;;18.50;99.90;;;;;;4938686;28;20081;-77
2022/07/26 01:21:59;;;;;;;;;;;18.50;99.90;;;;;;4975703;28;19934;-77
2022/07/26 01:24:27;;;;;;;;;;;18.50;99.90;;;;;;4950374;28;19926;-78
2022/07/26 01:26:56;;;;;;;;;;;18.50;99.90;;;;;;4951784;28;19926;-77
2022/07/26 01:29:25;;;;;;;;;;;18.50;99.90;;;;;;4955402;28;19930;-77
2022/07/26 01:31:52;;;;;;;;;;;18.50;99.90;;;;;;4977873;28;20372;-78
2022/07/26 01:34:31;;;;;;;;;;;18.50;99.90;;;;;;4960943;28;19926;-77
2022/07/26 01:37:32;;;;;;;;;;;18.50;99.90;;;;;;4956356;28;19922;-78
2022/07/26 01:40:03;;;;;;;;;;;18.50;99.90;;;;;;4940298;28;19934;-78
2022/07/26 01:42:39;;;;;;;;;;;18.50;99.90;;;;;;4945654;28;19922;-78
2022/07/26 01:45:06;;;;;;;;;;;18.50;99.90;;;;;;4936681;28;19930;-78
2022/07/26 01:47:32;;;;;;;;;;;18.50;99.90;;;;;;4953588;28;19926;-78
2022/07/26 01:49:58;;;;;;;;;;;18.50;99.90;;;;;;4935225;28;19934;-78
2022/07/26 01:52:25;;;;;;;;;;;18.50;99.90;;;;;;4956389;28;19925;-78
2022/07/26 01:54:51;;;;;;;;;;;18.50;99.90;;;;;;4930238;28;19967;-78
2022/07/26 01:57:17;;;;;;;;;;;18.40;99.90;;;;;;4933636;28;20379;-78
2022/07/26 01:59:43;;;;;;;;;;;18.40;99.90;;;;;;4954345;28;20454;-77
2022/07/26 02:02:08;;;;;;;;;;;18.40;99.90;;;;;;4953470;28;20025;-78
2022/07/26 02:07:18;;;;;;;;;;;18.40;99.90;;;;;;4991918;23;19930;-77
2022/07/26 02:09:45;;;;;;;;;;;18.30;99.90;;;;;;4945582;28;19937;-77
2022/07/26 02:12:12;;;;;;;;;;;18.30;99.90;;;;;;4937708;28;19936;-76
2022/07/26 02:14:40;;;;;;;;;;;18.30;99.90;;;;;;4956622;28;20316;-78
2022/07/26 02:17:06;;;;;;;;;;;18.30;99.90;;;;;;4937300;28;20464;-78
2022/07/26 02:19:32;;;;;;;;;;;18.30;99.90;;;;;;4940222;28;19971;-78
2022/07/26 02:21:58;;;;;;;;;;;18.30;99.90;;;;;;4946552;28;20516;-78
2022/07/26 02:24:36;;;;;;;;;;;18.30;99.90;;;;;;4940781;28;19934;-83
2022/07/26 02:27:03;;;;;;;;;;;18.20;99.90;;;;;;4955965;28;20381;-82
2022/07/26 02:29:29;;;;;;;;;;;18.20;99.90;;;;;;4934297;28;19931;-82
2022/07/26 02:35:10;;;;;;;;;;;17.90;99.90;;;;;;4958092;28;19936;-82
2022/07/26 02:40:58;;;;;;;;;;;17.70;99.90;;;;;;4964434;28;19925;-82
2022/07/26 02:43:57;;;;;;;;;;;17.60;99.90;;;;;;4947566;28;19926;-82
2022/07/26 02:53:34;;;;;;;;;;;17.30;99.90;;;;;;4970999;28;19993;-83
2022/07/26 02:56:22;;;;;;;;;;;17.40;99.90;;;;;;4954846;28;19980;-83
2022/07/26 02:59:19;;;;;;;;;;;17.20;99.90;;;;;;4956009;28;19931;-82
2022/07/26 03:01:57;;;;;;;;;;;17.30;99.90;;;;;;4949226;28;19930;-81
2022/07/26 03:04:25;;;;;;;;;;;17.20;99.90;;;;;;4953863;28;20566;-82
2022/07/26 03:06:50;;;;;;;;;;;17.20;99.90;;;;;;4949011;28;19934;-81
2022/07/26 03:09:38;;;;;;;;;;;17.10;99.90;;;;;;4964359;28;19929;-81
2022/07/26 03:12:05;;;;;;;;;;;17.10;99.90;;;;;;4950748;28;19936;-83
2022/07/26 03:14:34;;;;;;;;;;;17.00;99.90;;;;;;4967689;28;19934;-80
2022/07/26 03:17:00;;;;;;;;;;;17.00;99.90;;;;;;4969620;28;19964;-81
2022/07/26 03:19:36;;;;;;;;;;;17.00;99.90;;;;;;4953813;28;19977;-80
2022/07/26 03:22:11;;;;;;;;;;;16.90;99.90;;;;;;4954756;28;20025;-80
2022/07/26 03:24:44;;;;;;;;;;;16.90;99.90;;;;;;4958918;28;20858;-80
2022/07/26 03:27:12;;;;;;;;;;;16.90;99.90;;;;;;4950979;28;20400;-79
2022/07/26 03:29:44;;;;;;;;;;;16.30;99.90;;;;;;4954567;28;19933;-79
2022/07/26 03:35:14;;;;;;;;;;;16.90;99.90;;;;;;4974218;28;19910;-78
2022/07/26 03:37:45;;;;;;;;;;;16.90;99.90;;;;;;4958951;28;19926;-78
2022/07/26 03:40:19;;;;;;;;;;;16.80;99.90;;;;;;4972894;28;19949;-78
2022/07/26 03:42:47;;;;;;;;;;;16.90;99.90;;;;;;4969428;28;19934;-79
2022/07/26 03:45:14;;;;;;;;;;;16.80;99.90;;;;;;4950164;28;19930;-81
2022/07/26 03:47:39;;;;;;;;;;;16.80;99.90;;;;;;4951666;28;19934;-79
2022/07/26 03:50:06;;;;;;;;;;;16.80;99.90;;;;;;4967342;28;19932;-81
2022/07/26 03:52:32;;;;;;;;;;;16.70;99.90;;;;;;4966926;28;19937;-79
2022/07/26 03:54:58;;;;;;;;;;;16.70;99.90;;;;;;4940906;28;19930;-80
2022/07/26 03:57:24;;;;;;;;;;;16.70;99.90;;;;;;4961597;28;20385;-79
2022/07/26 03:59:49;;;;;;;;;;;16.60;99.90;;;;;;4948798;28;19937;-79
2022/07/26 04:02:15;;;;;;;;;;;16.60;99.90;;;;;;4946901;28;19937;-79
2022/07/26 04:04:42;;;;;;;;;;;16.60;99.90;;;;;;4948464;28;19926;-80
2022/07/26 04:07:09;;;;;;;;;;;16.60;99.90;;;;;;4962194;28;19966;-79
2022/07/26 04:09:53;;;;;;;;;;;16.60;99.90;;;;;;4954176;28;19930;-79
2022/07/26 04:12:25;;;;;;;;;;;16.60;99.90;;;;;;4954295;28;20066;-79
2022/07/26 04:14:52;;;;;;;;;;;17.50;99.90;;;;;;4939197;28;19934;-79
2022/07/26 04:17:18;;;;;;;;;;;16.70;99.90;;;;;;4951075;28;19926;-79
2022/07/26 04:19:44;;;;;;;;;;;16.60;99.90;;;;;;4948087;29;19930;-81
2022/07/26 04:22:10;;;;;;;;;;;16.60;99.90;;;;;;4950159;28;19926;-79
2022/07/26 04:24:39;;;;;;;;;;;16.60;99.90;;;;;;4963784;28;20767;-79
2022/07/26 04:27:06;;;;;;;;;;;16.70;99.90;;;;;;4963845;28;19930;-79
2022/07/26 04:29:37;;;;;;;;;;;16.60;99.90;;;;;;4949875;28;19933;-80
2022/07/26 04:32:03;;;;;;;;;;;16.60;99.90;;;;;;4932963;28;19980;-81
2022/07/26 04:34:29;;;;;;;;;;;16.60;99.90;;;;;;4935350;28;19930;-78
2022/07/26 04:36:56;;;;;;;;;;;16.50;99.90;;;;;;4968784;28;19930;-79
2022/07/26 04:39:23;;;;;;;;;;;16.40;99.90;;;;;;4934704;28;20443;-78
2022/07/26 04:41:49;;;;;;;;;;;16.40;99.90;;;;;;4947552;28;19933;-79
2022/07/26 04:44:15;;;;;;;;;;;;;;;;;;4961574;28;20436;-80
2022/07/26 04:46:42;;;;;;;;;;;16.30;99.90;;;;;;4970047;28;20410;-79
2022/07/26 04:49:26;;;;;;;;;;;16.20;99.90;;;;;;4977103;28;19926;-79
2022/07/26 04:51:55;;;;;;;;;;;16.60;99.90;;;;;;4946649;28;19937;-77
2022/07/26 04:54:21;;;;;;;;;;;16.60;99.90;;;;;;4930725;28;19926;-79
2022/07/26 04:56:48;;;;;;;;;;;16.30;99.90;;;;;;4929490;28;19934;-80
2022/07/26 04:59:14;;;;;;;;;;;16.20;99.90;;;;;;4926398;28;20013;-79
2022/07/26 05:01:41;;;;;;;;;;;16.20;99.90;;;;;;4944230;28;19989;-78
2022/07/26 05:04:07;;;;;;;;;;;16.20;99.90;;;;;;4933157;28;19926;-79
2022/07/26 05:06:34;;;;;;;;;;;16.30;99.90;;;;;;4934874;28;20301;-79
2022/07/26 05:09:00;;;;;;;;;;;16.30;99.90;;;;;;4952788;28;19966;-79
2022/07/26 05:11:27;;;;;;;;;;;16.30;99.90;;;;;;4938628;28;19970;-79
2022/07/26 05:13:53;;;;;;;;;;;16.40;99.90;;;;;;4944711;28;19926;-78
2022/07/26 05:22:17;;;;;;;;;;;16.40;99.90;;;;;;5075620;23;19937;-79
2022/07/26 05:24:44;;;;;;;;;;;16.40;99.90;;;;;;4948540;28;19928;-79
2022/07/26 05:27:11;;;;;;;;;;;16.40;99.90;;;;;;4976193;28;19941;-77
2022/07/26 05:29:37;;;;;;;;;;;16.30;99.90;;;;;;4960074;28;19937;-80
2022/07/26 05:32:07;;;;;;;;;;;16.30;99.90;;;;;;4971469;28;19926;-78
2022/07/26 05:34:35;;;;;;;;;;;16.30;99.90;;;;;;4995643;28;19936;-79
2022/07/26 05:37:03;;;;;;;;;;;16.20;99.90;;;;;;4990518;28;19926;-80
2022/07/26 05:39:31;;;;;;;;;;;16.10;99.90;;;;;;4975555;23;20006;-79
2022/07/26 05:45:06;;;;;;;;;;;16.00;99.90;;;;;;4958586;28;19929;-79
2022/07/26 05:47:37;;;;;;;;;;;16.00;99.90;;;;;;4974204;28;19927;-79
2022/07/26 05:50:06;;;;;;;;;;;16.00;99.90;;;;;;4955351;28;19922;-80
2022/07/26 05:52:32;;;;;;;;;;;16.00;99.90;;;;;;4958230;28;20021;-78
2022/07/26 05:54:58;;;;;;;;;;;16.10;99.90;;;;;;5028688;23;20370;-79
2022/07/26 05:57:27;;;;;;;;;;;16.10;99.90;;;;;;4972853;28;19929;-80
2022/07/26 05:59:53;;;;;;;;;;;16.10;99.90;;;;;;4985897;28;20032;-79
2022/07/26 06:02:19;;;;;;;;;;;16.10;99.90;;;;;;4960938;28;20008;-79
2022/07/26 06:04:45;;;;;;;;;;;16.10;99.90;;;;;;4954293;28;19929;-80
2022/07/26 06:07:11;;;;;;;;;;;16.10;99.90;;;;;;4947523;28;20528;-80
2022/07/26 06:09:37;;;;;;;;;;;16.10;99.90;;;;;;5030152;23;20462;-80
2022/07/26 06:12:15;;;;;;;;;;;16.20;99.90;;;;;;4966138;28;19961;-79
2022/07/26 06:14:41;;;;;;;;;;;16.10;99.90;;;;;;4956923;28;19977;-79
2022/07/26 06:17:09;;;;;;;;;;;16.20;99.90;;;;;;4964437;28;19926;-80
2022/07/26 06:19:35;;;;;;;;;;;16.20;99.90;;;;;;4942116;28;19921;-80
2022/07/26 06:22:02;;;;;;;;;;;16.20;99.90;;;;;;4957036;28;19965;-80
2022/07/26 06:24:29;;;;;;;;;;;16.30;99.90;;;;;;4967764;28;19926;-81
2022/07/26 06:26:55;;;;;;;;;;;16.30;99.90;;;;;;4938286;28;19930;-81
2022/07/26 06:29:21;;;;;;;;;;;16.40;99.90;;;;;;4964413;28;19954;-80
2022/07/26 06:31:49;;;;;;;;;;;16.30;99.90;;;;;;4935089;28;19930;-82
2022/07/26 06:34:15;;;;;;;;;;;16.40;99.90;;;;;;4942677;28;19984;-81
2022/07/26 06:40:01;;;;;;;;;;;16.40;99.90;;;;;;4960979;28;19926;-81
2022/07/26 06:45:52;;;;;;;;;;;16.40;99.90;;;;;;4961022;28;19921;-82
2022/07/26 06:48:30;;;;;;;;;;;16.40;99.90;;;;;;4964526;28;19926;-81
2022/07/26 06:50:59;;;;;;;;;;;16.40;99.90;;;;;;4935861;28;20364;-82
2022/07/26 06:53:53;;;;;;;;;;;16.50;99.90;;;;;;4894680;29;20094;-80
2022/07/26 06:56:21;;;;;;;;;;;16.60;99.90;;;;;;4878475;29;20389;-84
2022/07/26 06:59:01;;;;;;;;;;;16.80;99.90;;;;;;4892141;29;19939;-81
2022/07/26 07:01:27;;;;;;;;;;;16.80;99.90;;;;;;4878270;29;19927;-81
2022/07/26 07:04:17;;;;;;;;;;;16.80;99.90;;;;;;4877822;29;19931;-79
2022/07/26 07:06:44;;;;;;;;;;;16.80;99.90;;;;;;4894373;29;19973;-80
2022/07/26 07:09:11;;;;;;;;;;;16.80;99.90;;;;;;4876475;29;20346;-79
2022/07/26 07:11:37;;;;;;;;;;;16.80;99.90;;;;;;4879044;29;19953;-79
2022/07/26 07:14:03;;;;;;;;;;;16.80;99.90;;;;;;4886588;29;19927;-79
2022/07/26 07:16:29;;;;;;;;;;;16.70;99.90;;;;;;4877778;29;19931;-80
2022/07/26 07:18:56;;;;;;;;;;;16.70;99.90;;;;;;4877153;29;19935;-81
2022/07/26 07:21:29;;;;;;;;;;;16.70;99.90;;;;;;4890938;29;19927;-78
2022/07/26 07:23:55;;;;;;;;;;;16.70;99.90;;;;;;4909116;28;19930;-79
2022/07/26 07:26:25;;;;;;;;;;;16.70;99.90;;;;;;4935566;28;19926;-78
2022/07/26 07:28:51;;;;;;;;;;;16.80;99.90;;;;;;4911644;28;20337;-80
2022/07/26 07:31:41;;;;;;;;;;;16.80;99.90;;;;;;4918294;28;19936;-77
2022/07/26 07:34:07;;;;;;;;;;;16.90;99.90;;;;;;4941776;28;20384;-78
2022/07/26 07:36:34;;;;;;;;;;;16.90;99.90;;;;;;4932897;28;19981;-78
2022/07/26 07:39:00;;;;;;;;;;;16.90;99.90;;;;;;4948806;28;19984;-80
2022/07/26 07:41:26;;;;;;;;;;;16.80;99.90;;;;;;4937947;28;19926;-82
2022/07/26 07:43:52;;;;;;;;;;;16.80;99.90;;;;;;4929019;28;20052;-80
2022/07/26 07:46:23;;;;;;;;;;;16.80;99.90;;;;;;4924800;28;19982;-79
2022/07/26 07:48:58;;;;;;;;;;;16.80;99.90;;;;;;4950566;28;20042;-78
2022/07/26 07:51:42;;;;;;;;;;;16.80;99.90;;;;;;4940553;28;20039;-80
2022/07/26 07:54:09;;;;;;;;;;;16.80;99.90;;;;;;4950761;28;21342;-78
2022/07/26 07:56:35;;;;;;;;;;;16.70;99.90;;;;;;4951419;28;20289;-78
2022/07/26 07:59:05;;;;;;;;;;;16.70;99.90;;;;;;4930694;28;20050;-79
2022/07/26 08:01:32;;;;;;;;;;;16.70;99.90;;;;;;4963075;28;20361;-76
2022/07/26 08:03:58;;;;;;;;;;;16.70;99.90;;;;;;4923277;28;20581;-78
2022/07/26 08:06:24;;;;;;;;;;;16.70;99.90;;;;;;4938047;28;19937;-77
2022/07/26 08:08:51;;;;;;;;;;;16.80;99.90;;;;;;4936182;28;20400;-79
2022/07/26 08:11:23;;;;;;;;;;;16.80;99.90;;;;;;4940810;28;20362;-81
2022/07/26 08:13:49;;;;;;;;;;;16.80;99.90;;;;;;4915983;28;19934;-78
2022/07/26 08:16:15;;;;;;;;;;;16.90;99.90;;;;;;4933390;28;19936;-77
2022/07/26 08:18:42;;;;;;;;;;;17.00;99.90;;;;;;4916125;28;19945;-79
2022/07/26 08:21:16;;;;;;;;;;;17.10;99.90;;;;;;4926096;28;19926;-81
2022/07/26 08:24:04;;;;;;;;;;;17.30;99.90;;;;;;4918614;28;19934;-77
2022/07/26 08:26:30;;;;;;;;;;;17.50;99.90;;;;;;4933799;28;19959;-79
2022/07/26 08:28:56;;;;;;;;;;;17.80;99.90;;;;;;4917196;28;20297;-81
2022/07/26 08:31:22;;;;;;;;;;;18.00;99.90;;;;;;4922414;28;19931;-77
2022/07/26 08:33:50;;;;;;;;;;;18.10;99.90;;;;;;4952042;28;19933;-78
2022/07/26 08:36:18;;;;;;;;;;;18.00;99.90;;;;;;4925773;28;20520;-77
2022/07/26 08:38:45;;;;;;;;;;;18.00;99.90;;;;;;4932751;28;19934;-76
2022/07/26 08:41:11;;;;;;;;;;;18.10;99.90;;;;;;4931120;28;19931;-78
2022/07/26 08:43:38;;;;;;;;;;;18.10;99.90;;;;;;4939152;28;20013;-79
2022/07/26 08:46:04;;;;;;;;;;;17.80;99.90;;;;;;4953324;23;19926;31
2022/07/26 08:48:31;;;;;;;;;;;17.50;99.90;;;;;;4964849;28;19933;-80
2022/07/26 08:50:59;;;;;;;;;;;17.40;99.90;;;;;;4943748;28;19927;-79
2022/07/26 08:53:28;;;;;;;;;;;17.30;99.90;;;;;;4958118;28;19929;-79
2022/07/26 08:55:55;;;;;;;;;;;17.30;99.90;;;;;;4953049;28;19973;-78
2022/07/26 08:58:21;;;;;;;;;;;17.50;99.90;;;;;;4952506;28;20278;-79
2022/07/26 09:01:01;;;;;;;;;;;17.50;99.90;;;;;;4965600;28;19922;-78
2022/07/26 09:03:30;;;;;;;;;;;17.50;99.90;;;;;;4956960;28;19965;-79
2022/07/26 09:05:59;;;;;;;;;;;17.40;99.90;;;;;;4977488;28;19999;-80
2022/07/26 09:08:35;;;;;;;;;;;17.30;99.90;;;;;;4939603;28;19948;-78
2022/07/26 09:11:20;;;;;;;;;;;17.30;99.90;;;;;;4963659;28;19988;-81
2022/07/26 09:13:50;;;;;;;;;;;17.20;99.90;;;;;;4947469;28;19930;-79
2022/07/26 09:16:23;;;;;;;;;;;17.20;99.90;;;;;;4958208;28;19977;-80
2022/07/26 09:18:49;;;;;;;;;;;17.20;99.90;;;;;;4950240;28;20020;-77
2022/07/26 09:21:26;;;;;;;;;;;17.20;99.90;;;;;;4948267;28;20407;-79
2022/07/26 09:23:54;;;;;;;;;;;17.20;99.90;;;;;;4984911;28;19977;-80
2022/07/26 09:26:38;;;;;;;;;;;17.30;99.90;;;;;;4961726;28;20305;-79
2022/07/26 09:29:30;;;;;;;;;;;17.30;99.90;;;;;;4958554;23;20287;-82
2022/07/26 09:32:35;;;;;;;;;;;17.40;99.90;;;;;;4976551;23;19977;-79
2022/07/26 09:35:25;;;;;;;;;;;16.90;99.90;;;;;;4875763;29;19941;-77
2022/07/26 09:37:53;;;;;;;;;;;17.40;99.90;;;;;;4868693;29;20459;-78
2022/07/26 09:40:19;;;;;;;;;;;17.40;99.90;;;;;;4869253;29;19927;-81
2022/07/26 09:42:53;;;;;;;;;;;17.40;99.90;;;;;;4879029;29;19923;-79
2022/07/26 09:45:20;;;;;;;;;;;17.30;99.90;;;;;;4882455;29;19931;-80
2022/07/26 09:50:39;;;;;;;;;;;17.00;99.90;;;;;;5017153;23;20097;-78
2022/07/26 09:53:43;;;;;;;;;;;16.90;99.90;;;;;;4946422;28;19937;-81
2022/07/26 09:56:09;;;;;;;;;;;17.00;99.90;;;;;;4900532;29;19927;-78
2022/07/26 09:58:52;;;;;;;;;;;17.10;99.90;;;;;;4899308;29;20629;-77
2022/07/26 10:01:18;;;;;;;;;;;17.30;99.90;;;;;;4926448;29;19979;-78
2022/07/26 10:03:45;;;;;;;;;;;17.40;99.90;;;;;;4913604;29;19926;-79
2022/07/26 10:06:11;;;;;;;;;;;17.40;99.90;;;;;;4950295;28;19965;-85
2022/07/26 10:08:36;;;;;;;;;;;17.40;99.90;;;;;;4961086;28;20597;-79
2022/07/26 10:11:23;;;;;;;;;;;17.30;99.90;;;;;;4942218;28;19932;-79
2022/07/26 10:13:49;;;;;;;;;;;17.30;99.90;;;;;;4954214;28;19926;-77
2022/07/26 10:16:31;;;;;;;;;;;17.30;99.90;;;;;;4963355;28;19992;-79
2022/07/26 10:18:57;;;;;;;;;;;17.40;99.90;;;;;;4973682;28;20022;-80
2022/07/26 10:21:26;;;;;;;;;;;17.40;99.90;;;;;;4974215;28;19930;-78
2022/07/26 10:23:55;;;;;;;;;;;17.50;99.90;;;;;;4974104;28;19926;-78
2022/07/26 10:26:30;;;;;;;;;;;17.50;99.90;;;;;;4973751;28;20020;-79
2022/07/26 10:29:15;;;;;;;;;;;17.60;99.90;;;;;;4955745;28;19926;-78
2022/07/26 10:31:44;;;;;;;;;;;17.70;99.90;;;;;;4956391;28;19926;-80
2022/07/26 10:34:31;;;;;;;;;;;17.70;99.90;;;;;;4954638;28;19984;-78
2022/07/26 10:36:58;;;;;;;;;;;17.80;99.90;;;;;;4964152;28;19930;-79
2022/07/26 10:39:26;;;;;;;;;;;17.90;99.90;;;;;;4946925;28;19937;-79
2022/07/26 10:42:06;;;;;;;;;;;17.90;99.90;;;;;;4955648;28;19926;-81
2022/07/26 10:44:33;;;;;;;;;;;18.00;99.90;;;;;;4955133;28;20015;-79
2022/07/26 10:47:02;;;;;;;;;;;18.10;99.90;;;;;;4974315;28;19930;-78
2022/07/26 10:49:34;;;;;;;;;;;18.20;99.90;;;;;;4975267;28;19930;-78
2022/07/26 10:52:08;;;;;;;;;;;18.20;99.90;;;;;;4962847;28;19929;-80
2022/07/26 10:54:53;;;;;;;;;;;18.40;99.90;;;;;;4970435;28;19926;-78
2022/07/26 10:57:19;;;;;;;;;;;18.70;99.90;;;;;;4958213;28;20384;-81
2022/07/26 10:59:57;;;;;;;;;;;18.80;99.90;;;;;;4939587;28;20013;-77
2022/07/26 11:02:25;;;;;;;;;;;18.90;99.90;;;;;;4952213;28;19936;-79
2022/07/26 11:05:00;;;;;;;;;;;19.10;99.90;;;;;;4967860;28;19933;-77
2022/07/26 11:11:27;;;;;;;;;;;18.80;99.90;;;;;;4980843;28;19929;-80
2022/07/26 11:14:02;;;;;;;;;;;19.30;99.90;;;;;;4981096;28;19947;-80
2022/07/26 11:16:34;;;;;;;;;;;19.60;99.90;;;;;;5036757;23;19935;-80
2022/07/26 11:19:10;;;;;;;;;;;19.50;99.90;;;;;;4949242;28;20637;-79
2022/07/26 11:21:36;;;;;;;;;;;19.60;99.90;;;;;;4937420;28;19933;-80
2022/07/26 11:24:02;;;;;;;;;;;19.80;99.90;;;;;;4920279;28;19930;-83
2022/07/26 11:26:30;;;;;;;;;;;19.70;99.90;;;;;;4952816;28;19934;-81
2022/07/26 11:28:58;;;;;;;;;;;19.50;99.90;;;;;;4921849;28;19930;-78
2022/07/26 11:31:35;;;;;;;;;;;19.20;99.90;;;;;;4952101;28;19932;-77
2022/07/26 11:34:01;;;;;;;;;;;19.30;99.90;;;;;;4950441;28;19930;-79
2022/07/26 11:36:39;;;;;;;;;;;19.30;99.90;;;;;;4950700;28;20472;-77
2022/07/26 11:39:11;;;;;;;;;;;19.40;99.90;;;;;;4948881;28;19961;-79
2022/07/26 11:41:38;;;;;;;;;;;19.30;99.90;;;;;;4951129;28;19930;-80
2022/07/26 11:44:05;;;;;;;;;;;19.10;99.90;;;;;;4933205;29;19962;-79
2022/07/26 11:46:47;;;;;;;;;;;19.00;99.90;;;;;;4947506;28;19926;-79
2022/07/26 11:49:33;;;;;;;;;;;18.90;99.90;;;;;;4938821;28;20361;-78
2022/07/26 11:52:00;;;;;;;;;;;18.80;99.90;;;;;;4953017;28;19937;-79
2022/07/26 11:54:30;;;;;;;;;;;18.70;99.90;;;;;;4955449;28;19933;-81
2022/07/26 11:57:00;;;;;;;;;;;18.70;99.90;;;;;;4938543;28;20069;-77
2022/07/26 11:59:33;;;;;;;;;;;18.70;99.90;;;;;;4950112;28;20381;-78
2022/07/26 12:01:59;;;;;;;;;;;18.70;99.90;;;;;;4937782;28;19930;-78
2022/07/26 12:04:27;;;;;;;;;;;18.70;99.90;;;;;;4957234;28;19984;-80
2022/07/26 12:06:54;;;;;;;;;;;18.70;99.90;;;;;;4950166;28;19972;-77
2022/07/26 12:09:39;;;;;;;;;;;18.70;99.90;;;;;;4955401;28;20385;-77
2022/07/26 12:12:08;;;;;;;;;;;18.70;99.90;;;;;;4951950;28;19945;-79
2022/07/26 12:14:37;;;;;;;;;;;19.00;99.90;;;;;;4955502;28;20282;-78
2022/07/26 12:17:14;;;;;;;;;;;19.20;99.90;;;;;;4956976;28;19984;-78
2022/07/26 12:19:41;;;;;;;;;;;19.20;99.90;;;;;;4939160;28;19925;-80
2022/07/26 12:22:08;;;;;;;;;;;19.00;99.90;;;;;;4967513;28;19926;-79
2022/07/26 12:24:57;;;;;;;;;;;18.80;99.90;;;;;;4960732;28;19988;-78
2022/07/26 12:27:23;;;;;;;;;;;18.60;99.90;;;;;;4950688;28;19972;-77
2022/07/26 12:29:53;;;;;;;;;;;18.60;99.90;;;;;;4954695;28;19973;-77
2022/07/26 12:32:26;;;;;;;;;;;18.60;99.90;;;;;;4983412;28;19933;-78
2022/07/26 12:35:14;;;;;;;;;;;18.60;99.90;;;;;;4970522;28;19926;-78
2022/07/26 12:37:55;;;;;;;;;;;18.60;99.90;;;;;;4968761;28;19930;-78
2022/07/26 12:40:25;;;;;;;;;;;18.50;99.90;;;;;;4975369;28;19948;-79
2022/07/26 12:42:56;;;;;;;;;;;18.40;99.90;;;;;;4944023;28;19973;-77
2022/07/26 12:45:26;;;;;;;;;;;18.40;99.90;;;;;;4977557;28;20096;-77
2022/07/26 12:47:54;;;;;;;;;;;18.50;99.90;;;;;;4948401;28;19992;-80
2022/07/26 12:50:20;;;;;;;;;;;18.50;99.90;;;;;;4944181;28;19930;-79
2022/07/26 12:52:47;;;;;;;;;;;18.50;99.90;;;;;;4949358;28;20301;-83
2022/07/26 12:55:18;;;;;;;;;;;18.60;99.90;;;;;;4952298;28;19925;-82
2022/07/26 12:57:44;;;;;;;;;;;18.70;99.90;;;;;;4937276;28;20016;-83
2022/07/26 13:00:10;;;;;;;;;;;18.70;99.90;;;;;;4949486;28;20193;-81
2022/07/26 13:02:37;;;;;;;;;;;18.80;99.90;;;;;;4971313;28;19933;-80
2022/07/26 13:05:03;;;;;;;;;;;18.80;99.90;;;;;;4950343;28;19926;-81
2022/07/26 13:07:29;;;;;;;;;;;18.70;99.90;;;;;;4934271;28;20385;-80
2022/07/26 13:09:55;;;;;;;;;;;18.80;99.90;;;;;;4953293;28;20328;-79
2022/07/26 13:12:21;;;;;;;;;;;18.80;99.90;;;;;;4938361;28;19933;-82
2022/07/26 13:14:47;;;;;;;;;;;18.80;99.90;;;;;;4934828;28;19977;-84
2022/07/26 13:17:13;;;;;;;;;;;18.90;99.90;;;;;;4936728;28;20386;-81
2022/07/26 13:19:39;;;;;;;;;;;19.00;99.90;;;;;;4935601;28;20004;-84
2022/07/26 13:22:05;;;;;;;;;;;18.90;99.90;;;;;;4918607;28;20370;-82
2022/07/26 13:24:32;;;;;;;;;;;18.80;99.90;;;;;;4953418;28;20404;-84
2022/07/26 13:26:58;;;;;;;;;;;18.80;99.90;;;;;;4940369;28;20072;-82
2022/07/26 13:29:24;;;;;;;;;;;18.70;99.90;;;;;;4953172;28;20351;-83
2022/07/26 13:31:50;;;;;;;;;;;18.70;99.90;;;;;;4940509;28;19930;-83
2022/07/26 13:34:16;;;;;;;;;;;18.70;99.90;;;;;;4950556;28;19926;-80
2022/07/26 13:36:42;;;;;;;;;;;18.70;99.90;;;;;;4939697;28;20393;-81
2022/07/26 13:39:08;;;;;;;;;;;18.80;99.90;;;;;;4944348;28;20020;-85
2022/07/26 13:41:34;;;;;;;;;;;18.80;99.90;;;;;;4953036;28;19926;-81
2022/07/26 13:44:00;;;;;;;;;;;18.70;99.90;;;;;;4953961;28;19957;-83
2022/07/26 13:46:28;;;;;;;;;;;18.60;99.90;;;;;;4953352;28;19926;-80
2022/07/26 13:48:58;;;;;;;;;;;18.60;99.90;;;;;;4923319;28;19938;-79
2022/07/26 13:51:55;;;;;;;;;;;18.50;99.90;;;;;;4956148;28;19961;-82
2022/07/26 13:54:13;;;;;;;;;;;18.40;99.90;;;;;;4951196;28;19933;-81
2022/07/26 13:56:39;;;;;;;;;;;18.40;99.90;;;;;;4952922;28;20042;-81
2022/07/26 13:59:05;;;;;;;;;;;18.40;99.90;;;;;;4949943;28;20338;-83
2022/07/26 14:01:32;;;;;;;;;;;18.40;99.90;;;;;;4954579;28;19926;-82
2022/07/26 14:03:58;;;;;;;;;;;18.30;99.90;;;;;;4952650;28;19941;-83
2022/07/26 14:06:25;;;;;;;;;;;18.30;99.90;;;;;;4936163;28;20360;-81
2022/07/26 14:08:51;;;;;;;;;;;18.30;99.90;;;;;;4921221;28;20290;-81
2022/07/26 14:11:17;;;;;;;;;;;18.30;99.90;;;;;;4922891;28;19926;-80
2022/07/26 14:13:42;;;;;;;;;;;18.40;99.90;;;;;;4965394;28;20338;-81
2022/07/26 14:16:08;;;;;;;;;;;18.40;99.90;;;;;;4951061;28;19966;-79
2022/07/26 14:18:34;;;;;;;;;;;18.40;99.90;;;;;;4956773;28;19988;-80
2022/07/26 14:21:02;;;;;;;;;;;18.30;99.90;;;;;;4938210;28;19937;-83
2022/07/26 14:23:28;;;;;;;;;;;18.30;99.90;;;;;;4938321;28;20265;-83
2022/07/26 14:25:54;;;;;;;;;;;18.30;99.90;;;;;;4952925;28;19926;-80
2022/07/26 14:28:19;;;;;;;;;;;18.20;99.90;;;;;;4938348;28;19925;-80
2022/07/26 14:30:45;;;;;;;;;;;18.20;99.90;;;;;;4951622;28;19930;-80
2022/07/26 14:33:11;;;;;;;;;;;18.20;99.90;;;;;;4948943;28;19984;-83
2022/07/26 14:35:37;;;;;;;;;;;18.20;99.90;;;;;;4950802;28;19965;-86
2022/07/26 14:38:03;;;;;;;;;;;18.30;99.90;;;;;;4953814;28;19930;-84
2022/07/26 14:40:29;;;;;;;;;;;18.40;99.90;;;;;;4952660;28;19992;-81
2022/07/26 14:42:54;;;;;;;;;;;18.30;99.90;;;;;;4959363;28;19930;-82
2022/07/26 14:45:23;;;;;;;;;;;18.20;99.90;;;;;;4975725;28;20006;-83
2022/07/26 14:47:49;;;;;;;;;;;18.30;99.90;;;;;;4938195;28;20360;-84
2022/07/26 14:50:15;;;;;;;;;;;18.20;99.90;;;;;;4920630;28;20362;-81
2022/07/26 14:52:45;;;;;;;;;;;18.20;99.90;;;;;;4940594;28;20444;-82
2022/07/26 14:55:11;;;;;;;;;;;18.30;99.90;;;;;;4951003;28;19937;-84
2022/07/26 14:57:37;;;;;;;;;;;18.30;99.90;;;;;;4953003;28;20158;-82
2022/07/26 15:00:04;;;;;;;;;;;18.30;99.90;;;;;;4949493;28;19930;-80
2022/07/26 15:02:29;;;;;;;;;;;18.30;99.90;;;;;;4937548;28;19929;-84
2022/07/26 15:04:55;;;;;;;;;;;18.30;99.90;;;;;;4952611;28;19930;-85
2022/07/26 15:07:21;;;;;;;;;;;18.20;99.90;;;;;;4952930;28;20001;-83
2022/07/26 15:09:47;;;;;;;;;;;18.20;99.90;;;;;;4952710;28;19977;-80
2022/07/26 15:12:12;;;;;;;;;;;18.10;99.90;;;;;;4947448;28;19980;-82
2022/07/26 15:14:39;;;;;;;;;;;18.00;99.90;;;;;;4952055;28;19939;-83